createdAt,value
2017-08-28T00:01:02.003Z,18.93
2017-08-28T00:03:29.457Z,19.93
2017-08-28T00:05:56.882Z,20.10
2017-08-28T00:08:24.320Z,21.30
2017-08-28T00:10:51.948Z,19.37
2017-08-28T00:13:19.371Z,19.53
2017-08-28T00:15:47.288Z,19.30
2017-08-28T00:18:14.762Z,19.87
2017-08-28T00:20:42.180Z,17.80
2017-08-28T00:23:09.610Z,21.17
2017-08-28T00:25:37.340Z,20.10
2017-08-28T00:28:04.788Z,19.60
2017-08-28T00:30:32.215Z,20.07
2017-08-28T00:32:59.662Z,19.40
2017-08-28T00:35:27.083Z,18.90
2017-08-28T00:37:54.524Z,19.10
2017-08-28T00:40:22.145Z,18.80
2017-08-28T00:42:49.593Z,18.77
2017-08-28T00:45:17.006Z,18.20
2017-08-28T00:47:44.692Z,17.40
2017-08-28T00:50:12.114Z,17.77
2017-08-28T00:52:39.999Z,18.80
2017-08-28T00:55:07.415Z,18.93
2017-08-28T00:57:34.841Z,19.33
2017-08-28T01:00:02.261Z,19.83
2017-08-28T01:02:29.712Z,20.60
2017-08-28T01:04:57.125Z,18.17
2017-08-28T01:07:24.551Z,18.13
2017-08-28T01:09:51.983Z,17.90
2017-08-28T01:12:19.398Z,18.50
2017-08-28T01:14:46.823Z,18.20
2017-08-28T01:17:14.285Z,19.07
2017-08-28T01:19:41.715Z,18.03
2017-08-28T01:22:09.135Z,18.17
2017-08-28T01:24:36.584Z,18.27
2017-08-28T01:27:04.012Z,19.83
2017-08-28T01:29:31.448Z,17.60
2017-08-28T01:31:59.106Z,20.20
2017-08-28T01:34:26.527Z,18.50
2017-08-28T01:36:53.962Z,20.40
2017-08-28T01:39:21.403Z,18.53
2017-08-28T01:41:48.837Z,19.97
2017-08-28T01:44:16.334Z,18.33
2017-08-28T01:46:45.091Z,18.93
2017-08-28T01:49:12.554Z,17.57
2017-08-28T01:51:40.071Z,18.93
2017-08-28T01:54:07.495Z,17.30
2017-08-28T01:56:34.947Z,18.07
2017-08-28T01:59:02.369Z,18.03
2017-08-28T02:01:29.791Z,19.97
2017-08-28T02:03:57.251Z,19.07
2017-08-28T02:06:24.677Z,18.00
2017-08-28T02:08:52.095Z,18.57
2017-08-28T02:11:19.544Z,19.43
2017-08-28T02:13:46.963Z,18.10
2017-08-28T02:16:14.391Z,16.77
2017-08-28T02:18:41.904Z,17.23
2017-08-28T02:21:09.318Z,16.70
2017-08-28T02:23:37.388Z,17.20
2017-08-28T02:26:04.832Z,18.10
2017-08-28T02:28:35.259Z,17.37
2017-08-28T02:31:02.683Z,17.80
2017-08-28T02:33:30.151Z,18.30
2017-08-28T02:35:57.562Z,18.70
2017-08-28T02:38:25.028Z,18.83
2017-08-28T02:40:52.469Z,19.17
2017-08-28T02:43:19.893Z,18.50
2017-08-28T02:45:47.330Z,18.63
2017-08-28T02:48:14.774Z,18.60
2017-08-28T02:50:42.190Z,17.47
2017-08-28T02:53:09.607Z,17.47
2017-08-28T02:55:37.160Z,16.83
2017-08-28T02:58:04.578Z,18.80
2017-08-28T03:00:32.002Z,17.73
2017-08-28T03:02:59.466Z,16.33
2017-08-28T03:05:26.882Z,16.00
2017-08-28T03:07:54.312Z,16.23
2017-08-28T03:10:21.748Z,15.10
2017-08-28T03:12:49.167Z,16.67
2017-08-28T03:15:16.591Z,16.00
2017-08-28T03:17:44.026Z,14.90
2017-08-28T03:20:11.450Z,16.50
2017-08-28T03:22:38.904Z,15.93
2017-08-28T03:25:06.555Z,15.13
2017-08-28T03:27:33.976Z,16.83
2017-08-28T03:30:01.393Z,17.47
2017-08-28T03:32:30.071Z,17.70
2017-08-28T03:34:57.507Z,18.23
2017-08-28T03:37:24.925Z,16.90
2017-08-28T03:39:52.551Z,17.03
2017-08-28T03:42:19.980Z,15.90
2017-08-28T03:44:47.408Z,18.10
2017-08-28T03:47:14.849Z,17.13
2017-08-28T03:49:42.360Z,17.53
2017-08-28T03:52:09.789Z,16.87
2017-08-28T03:54:37.433Z,18.17
2017-08-28T03:57:04.852Z,17.60
2017-08-28T03:59:32.274Z,16.90
2017-08-28T04:01:59.714Z,15.37
2017-08-28T04:04:27.747Z,17.80
2017-08-28T04:06:55.345Z,16.00
2017-08-28T04:09:22.794Z,16.63
2017-08-28T04:11:50.283Z,16.07
2017-08-28T04:14:17.704Z,17.20
2017-08-28T04:16:46.255Z,16.27
2017-08-28T04:19:13.671Z,16.30
2017-08-28T04:21:41.096Z,18.23
2017-08-28T04:24:08.518Z,15.53
2017-08-28T04:26:36.205Z,17.03
2017-08-28T04:29:03.641Z,15.87
2017-08-28T04:31:31.064Z,15.97
2017-08-28T04:33:58.487Z,16.43
2017-08-28T04:36:25.951Z,15.70
2017-08-28T04:38:53.374Z,15.90
2017-08-28T04:41:20.800Z,14.93
2017-08-28T04:43:48.246Z,15.63
2017-08-28T04:46:15.666Z,16.73
2017-08-28T04:48:43.093Z,16.30
2017-08-28T04:51:11.511Z,15.43
2017-08-28T04:53:39.295Z,15.10
2017-08-28T04:56:06.721Z,14.50
2017-08-28T04:58:34.159Z,15.70
2017-08-28T05:01:01.578Z,15.87
2017-08-28T05:03:29.004Z,14.30
2017-08-28T05:05:57.797Z,14.17
2017-08-28T05:08:25.218Z,12.77
2017-08-28T05:10:52.654Z,13.17
2017-08-28T05:13:20.303Z,13.37
2017-08-28T05:15:47.729Z,13.93
2017-08-28T05:18:15.146Z,13.07
2017-08-28T05:20:42.581Z,13.20
2017-08-28T05:23:10.007Z,13.23
2017-08-28T05:25:37.441Z,14.43
2017-08-28T05:28:04.887Z,14.37
2017-08-28T05:30:32.336Z,13.67
2017-08-28T05:32:59.755Z,14.20
2017-08-28T05:35:27.206Z,13.70
2017-08-28T05:37:54.836Z,14.13
2017-08-28T05:40:22.261Z,13.50
2017-08-28T05:42:49.705Z,14.57
2017-08-28T05:45:17.123Z,13.53
2017-08-28T05:47:44.547Z,15.37
2017-08-28T05:50:11.998Z,14.83
2017-08-28T05:52:39.422Z,14.50
2017-08-28T05:55:06.852Z,14.93
2017-08-28T05:57:34.305Z,14.70
2017-08-28T06:00:01.724Z,13.70
2017-08-28T06:02:29.154Z,13.70
2017-08-28T06:04:56.615Z,14.77
2017-08-28T06:07:24.031Z,14.53
2017-08-28T06:09:51.446Z,14.00
2017-08-28T06:12:19.574Z,13.70
2017-08-28T06:14:47.011Z,13.97
2017-08-28T06:17:14.441Z,14.00
2017-08-28T06:19:41.885Z,13.10
2017-08-28T06:22:09.297Z,14.03
2017-08-28T06:24:36.716Z,13.90
2017-08-28T06:27:04.375Z,13.53
2017-08-28T06:29:31.807Z,13.53
2017-08-28T06:31:59.227Z,15.60
2017-08-28T06:34:26.704Z,11.90
2017-08-28T06:36:54.118Z,8.83
2017-08-28T06:39:21.529Z,8.00
2017-08-28T06:41:49.039Z,7.77
2017-08-28T06:44:16.455Z,7.67
2017-08-28T06:46:43.876Z,7.17
2017-08-28T06:49:11.307Z,6.70
2017-08-28T06:51:38.733Z,7.50
2017-08-28T06:54:06.150Z,6.40
2017-08-28T06:56:33.588Z,6.60
2017-08-28T06:59:01.007Z,6.50
2017-08-28T07:01:28.536Z,6.10
2017-08-28T07:03:56.766Z,6.40
2017-08-28T07:06:24.188Z,6.20
2017-08-28T07:08:51.605Z,5.90
2017-08-28T07:11:20.435Z,6.60
2017-08-28T07:13:47.859Z,5.70
2017-08-28T07:16:31.219Z,6.70
2017-08-28T07:18:58.622Z,6.70
2017-08-28T07:21:26.042Z,5.40
2017-08-28T07:23:53.488Z,5.50
2017-08-28T07:26:20.909Z,5.77
2017-08-28T07:28:48.318Z,5.90
2017-08-28T07:31:15.899Z,7.67
2017-08-28T07:33:43.311Z,6.90
2017-08-28T07:36:10.871Z,6.60
2017-08-28T07:38:39.735Z,6.90
2017-08-28T07:41:07.152Z,6.37
2017-08-28T07:43:34.563Z,6.93
2017-08-28T07:46:02.194Z,6.50
2017-08-28T07:48:29.610Z,5.83
2017-08-28T07:50:57.028Z,7.47
2017-08-28T07:53:24.688Z,6.87
2017-08-28T07:55:52.097Z,6.57
2017-08-28T07:58:20.200Z,6.47
2017-08-28T08:00:47.630Z,6.87
2017-08-28T08:03:15.046Z,6.80
2017-08-28T08:05:42.467Z,6.97
2017-08-28T08:08:10.068Z,6.80
2017-08-28T08:10:37.498Z,6.83
2017-08-28T08:13:04.906Z,6.87
2017-08-28T08:15:32.352Z,6.23
2017-08-28T08:17:59.763Z,6.37
2017-08-28T08:20:27.183Z,6.33
2017-08-28T08:22:54.619Z,6.80
2017-08-28T08:25:22.119Z,6.83
2017-08-28T08:27:49.559Z,6.33
2017-08-28T08:30:16.999Z,7.00
2017-08-28T08:32:45.092Z,6.63
2017-08-28T08:35:12.513Z,6.93
2017-08-28T08:37:39.955Z,6.40
2017-08-28T08:40:07.367Z,7.00
2017-08-28T08:42:34.788Z,6.80
2017-08-28T08:45:02.352Z,7.70
2017-08-28T08:47:29.766Z,5.97
2017-08-28T08:49:57.179Z,6.70
2017-08-28T08:52:24.614Z,6.60
2017-08-28T08:54:52.032Z,6.40
2017-08-28T08:57:19.459Z,7.20
2017-08-28T08:59:46.895Z,7.00
2017-08-28T09:02:14.874Z,6.73
2017-08-28T09:04:42.296Z,6.73
2017-08-28T09:07:09.724Z,7.00
2017-08-28T09:09:37.162Z,7.40
2017-08-28T09:12:06.350Z,7.00
2017-08-28T09:14:33.923Z,6.60
2017-08-28T09:17:01.348Z,6.43
2017-08-28T09:19:28.759Z,6.63
2017-08-28T09:21:56.330Z,6.40
2017-08-28T09:24:23.758Z,7.30
2017-08-28T09:26:51.179Z,6.50
2017-08-28T09:29:18.599Z,6.97
2017-08-28T09:31:46.020Z,6.43
2017-08-28T09:34:13.434Z,6.57
2017-08-28T09:36:42.400Z,6.67
2017-08-28T09:39:10.606Z,7.27
2017-08-28T09:41:38.020Z,6.07
2017-08-28T09:44:05.687Z,6.30
2017-08-28T09:46:33.114Z,6.57
2017-08-28T09:49:00.527Z,7.27
2017-08-28T09:51:27.963Z,6.93
2017-08-28T09:53:55.412Z,6.13
2017-08-28T09:56:22.835Z,5.73
2017-08-28T09:58:50.277Z,6.43
2017-08-28T10:01:17.700Z,7.20
2017-08-28T10:03:45.111Z,5.83
2017-08-28T10:06:12.568Z,7.60
2017-08-28T10:08:39.995Z,6.40
2017-08-28T10:11:07.646Z,6.33
2017-08-28T10:13:35.087Z,6.70
2017-08-28T10:16:02.517Z,6.83
2017-08-28T10:18:29.939Z,7.13
2017-08-28T10:20:57.379Z,7.17
2017-08-28T10:23:24.804Z,6.70
2017-08-28T10:25:52.228Z,6.80
2017-08-28T10:28:19.920Z,6.90
2017-08-28T10:30:47.328Z,7.03
2017-08-28T10:33:14.737Z,7.57
2017-08-28T10:35:42.906Z,7.40
2017-08-28T10:38:10.326Z,7.03
2017-08-28T10:40:37.752Z,7.80
2017-08-28T10:43:05.395Z,7.70
2017-08-28T10:45:32.809Z,7.50
2017-08-28T10:48:00.223Z,7.00
2017-08-28T10:50:27.852Z,12.90
2017-08-28T10:52:55.271Z,9.50
2017-08-28T10:55:22.683Z,8.97
2017-08-28T10:57:50.131Z,8.03
2017-08-28T11:00:17.548Z,8.43
2017-08-28T11:02:44.972Z,9.00
2017-08-28T11:05:12.403Z,7.90
2017-08-28T11:07:39.835Z,8.83
2017-08-28T11:10:07.260Z,8.17
2017-08-28T11:12:34.683Z,8.37
2017-08-28T11:15:02.101Z,8.70
2017-08-28T11:17:29.587Z,8.90
2017-08-28T11:19:57.022Z,9.40
2017-08-28T11:22:24.458Z,10.37
2017-08-28T11:24:51.892Z,9.90
2017-08-28T11:27:19.532Z,9.37
2017-08-28T11:29:46.943Z,9.10
2017-08-28T11:32:14.402Z,9.50
2017-08-28T11:34:41.847Z,9.07
2017-08-28T11:37:09.306Z,9.50
2017-08-28T11:39:36.711Z,11.37
2017-08-28T11:42:04.170Z,11.10
2017-08-28T11:44:31.576Z,8.57
2017-08-28T11:46:58.997Z,11.30
2017-08-28T11:49:27.863Z,10.00
2017-08-28T11:51:55.291Z,11.27
2017-08-28T11:54:23.018Z,11.30
2017-08-28T11:56:51.413Z,10.37
2017-08-28T11:59:18.835Z,10.60
2017-08-28T12:01:46.825Z,11.13
2017-08-28T12:04:14.259Z,10.90
2017-08-28T12:06:41.685Z,10.37
2017-08-28T12:09:09.104Z,9.90
2017-08-28T12:11:36.689Z,10.77
2017-08-28T12:14:04.104Z,11.47
2017-08-28T12:16:31.531Z,10.40
2017-08-28T12:18:58.978Z,10.47
2017-08-28T12:21:26.399Z,10.27
2017-08-28T12:23:53.834Z,10.73
2017-08-28T12:26:23.017Z,12.83
2017-08-28T12:28:50.444Z,10.60
2017-08-28T12:31:17.873Z,21.70
2017-08-28T12:33:45.353Z,13.23
2017-08-28T12:36:13.769Z,11.30
2017-08-28T12:38:41.179Z,10.37
2017-08-28T12:41:08.792Z,9.00
2017-08-28T12:43:36.215Z,9.67
2017-08-28T12:46:03.688Z,10.90
2017-08-28T12:48:31.116Z,10.07
2017-08-28T12:50:58.528Z,10.40
2017-08-28T12:53:26.006Z,12.77
2017-08-28T12:55:55.264Z,10.43
2017-08-28T12:58:22.751Z,9.37
2017-08-28T13:00:50.166Z,10.07
2017-08-28T13:03:17.608Z,10.10
2017-08-28T13:05:45.034Z,9.20
2017-08-28T13:08:12.451Z,8.77
2017-08-28T13:10:39.974Z,10.13
2017-08-28T13:13:07.391Z,9.50
2017-08-28T13:15:34.810Z,10.23
2017-08-28T13:18:02.267Z,9.90
2017-08-28T13:20:29.678Z,10.57
2017-08-28T13:22:57.119Z,10.50
2017-08-28T13:25:24.567Z,9.30
2017-08-28T13:27:53.451Z,10.20
2017-08-28T13:30:20.901Z,10.77
2017-08-28T13:32:48.340Z,9.37
2017-08-28T13:35:15.773Z,8.87
2017-08-28T13:37:43.194Z,9.33
2017-08-28T13:40:10.763Z,10.20
2017-08-28T13:42:38.187Z,9.80
2017-08-28T13:45:05.609Z,9.37
2017-08-28T13:47:33.235Z,11.10
2017-08-28T13:50:00.900Z,10.00
2017-08-28T13:52:28.299Z,10.20
2017-08-28T13:54:55.737Z,9.57
2017-08-28T13:57:23.165Z,9.47
2017-08-28T13:59:50.574Z,9.53
2017-08-28T14:02:18.059Z,19.70
2017-08-28T14:04:45.480Z,10.33
2017-08-28T14:07:12.900Z,8.67
2017-08-28T14:09:40.400Z,8.80
2017-08-28T14:12:07.887Z,9.23
2017-08-28T14:14:35.322Z,9.47
2017-08-28T14:17:02.845Z,9.40
2017-08-28T14:19:30.275Z,9.90
2017-08-28T14:21:57.700Z,9.27
2017-08-28T14:24:25.315Z,8.80
2017-08-28T14:26:52.731Z,8.50
2017-08-28T14:29:20.180Z,9.27
2017-08-28T14:31:47.625Z,9.30
2017-08-28T14:34:15.038Z,8.83
2017-08-28T14:36:42.468Z,10.27
2017-08-28T14:39:09.915Z,9.80
2017-08-28T14:41:37.349Z,8.70
2017-08-28T14:44:05.734Z,9.00
2017-08-28T14:46:33.610Z,9.40
2017-08-28T14:49:01.038Z,8.80
2017-08-28T14:51:28.467Z,9.37
2017-08-28T14:53:55.906Z,8.80
2017-08-28T14:56:23.331Z,9.20
2017-08-28T14:58:50.751Z,8.47
2017-08-28T15:01:19.704Z,9.30
2017-08-28T15:03:47.167Z,8.93
2017-08-28T15:06:14.584Z,10.20
2017-08-28T15:08:42.861Z,9.17
2017-08-28T15:11:10.278Z,10.00
2017-08-28T15:13:37.714Z,9.53
2017-08-28T15:16:05.161Z,10.10
2017-08-28T15:18:32.952Z,9.93
2017-08-28T15:21:00.399Z,10.13
2017-08-28T15:23:27.842Z,10.17
2017-08-28T15:25:55.384Z,9.83
2017-08-28T15:28:23.884Z,9.70
2017-08-28T15:30:52.862Z,9.27
2017-08-28T15:33:21.492Z,9.37
2017-08-28T15:35:48.902Z,8.70
2017-08-28T15:38:16.371Z,8.90
2017-08-28T15:40:43.798Z,9.87
2017-08-28T15:43:11.225Z,10.03
2017-08-28T15:45:39.091Z,10.37
2017-08-28T15:48:06.651Z,9.20
2017-08-28T15:50:35.393Z,9.97
2017-08-28T15:53:03.080Z,10.63
2017-08-28T15:55:30.530Z,8.47
2017-08-28T15:57:57.961Z,9.97
2017-08-28T16:00:25.460Z,10.03
2017-08-28T16:02:52.892Z,9.43
2017-08-28T16:05:20.337Z,10.90
2017-08-28T16:07:47.767Z,9.17
2017-08-28T16:10:15.179Z,8.60
2017-08-28T16:12:42.612Z,8.00
2017-08-28T16:15:10.044Z,7.17
2017-08-28T16:17:37.476Z,7.80
2017-08-28T16:20:05.703Z,10.83
2017-08-28T16:22:33.163Z,9.00
2017-08-28T16:25:00.583Z,8.90
2017-08-28T16:27:28.023Z,12.50
2017-08-28T16:29:55.477Z,8.53
2017-08-28T16:32:22.897Z,9.00
2017-08-28T16:34:50.336Z,8.63
2017-08-28T16:37:17.775Z,8.70
2017-08-28T16:39:45.200Z,10.23
2017-08-28T16:42:12.624Z,8.93
2017-08-28T16:44:40.059Z,9.20
2017-08-28T16:47:07.489Z,9.97
2017-08-28T16:49:34.923Z,10.60
2017-08-28T16:52:02.526Z,8.57
2017-08-28T16:54:29.962Z,8.90
2017-08-28T16:56:57.839Z,7.73
2017-08-28T16:59:25.419Z,8.13
2017-08-28T17:01:52.840Z,8.27
2017-08-28T17:04:20.256Z,8.00
2017-08-28T17:06:47.708Z,7.47
2017-08-28T17:09:15.155Z,8.70
2017-08-28T17:11:42.563Z,8.23
2017-08-28T17:14:10.021Z,8.13
2017-08-28T17:16:37.457Z,8.77
2017-08-28T17:19:04.883Z,8.60
2017-08-28T17:21:32.374Z,8.80
2017-08-28T17:23:59.813Z,8.60
2017-08-28T17:26:27.234Z,10.20
2017-08-28T17:28:54.712Z,9.43
2017-08-28T17:31:22.128Z,8.77
2017-08-28T17:33:49.545Z,8.77
2017-08-28T17:36:18.680Z,8.47
2017-08-28T17:38:46.100Z,8.43
2017-08-28T17:41:13.611Z,8.50
2017-08-28T17:43:41.079Z,8.60
2017-08-28T17:46:08.508Z,8.00
2017-08-28T17:48:35.927Z,9.53
2017-08-28T17:51:03.368Z,8.70
2017-08-28T17:53:30.793Z,8.80
2017-08-28T17:55:58.218Z,8.93
2017-08-28T17:58:25.827Z,8.50
2017-08-28T18:00:53.250Z,8.00
2017-08-28T18:03:20.666Z,12.80
2017-08-28T18:05:49.063Z,22.00
2017-08-28T18:08:16.486Z,12.17
2017-08-28T18:10:43.908Z,9.90
2017-08-28T18:13:11.355Z,9.47
2017-08-28T18:15:38.818Z,9.20
2017-08-28T18:18:06.240Z,9.07
2017-08-28T18:20:33.696Z,8.67
2017-08-28T18:23:01.119Z,8.83
2017-08-28T18:25:28.547Z,7.60
2017-08-28T18:27:55.999Z,8.60
2017-08-28T18:30:23.430Z,9.43
2017-08-28T18:32:51.251Z,9.93
2017-08-28T18:35:18.685Z,7.97
2017-08-28T18:37:46.139Z,8.83
2017-08-28T18:40:13.563Z,9.17
2017-08-28T18:42:40.988Z,9.47
2017-08-28T18:45:08.624Z,8.27
2017-08-28T18:47:36.051Z,8.30
2017-08-28T18:50:03.872Z,7.93
2017-08-28T18:52:31.532Z,9.30
2017-08-28T18:54:58.965Z,9.00
2017-08-28T18:57:26.393Z,8.57
2017-08-28T18:59:54.020Z,8.20
2017-08-28T19:02:21.447Z,9.07
2017-08-28T19:04:48.885Z,8.40
2017-08-28T19:07:16.354Z,9.67
2017-08-28T19:09:43.783Z,10.07
2017-08-28T19:12:11.798Z,9.30
2017-08-28T19:14:39.381Z,9.10
2017-08-28T19:17:06.814Z,9.43
2017-08-28T19:19:34.249Z,9.67
2017-08-28T19:22:01.794Z,9.60
2017-08-28T19:24:29.220Z,10.40
2017-08-28T19:26:56.652Z,10.10
2017-08-28T19:29:24.129Z,10.80
2017-08-28T19:31:51.556Z,10.70
2017-08-28T19:34:33.102Z,10.60
2017-08-28T19:37:00.547Z,10.80
2017-08-28T19:39:28.344Z,11.50
2017-08-28T19:41:55.813Z,11.67
2017-08-28T19:44:23.240Z,10.70
2017-08-28T19:46:50.758Z,10.80
2017-08-28T19:49:18.216Z,12.13
2017-08-28T19:51:45.665Z,11.30
2017-08-28T19:54:13.132Z,10.77
2017-08-28T19:56:40.562Z,9.90
2017-08-28T19:59:08.001Z,10.20
2017-08-28T20:01:41.341Z,11.40
2017-08-28T20:04:09.050Z,10.00
2017-08-28T20:06:36.638Z,10.77
2017-08-28T20:09:04.113Z,12.07
2017-08-28T20:11:31.547Z,10.57
2017-08-28T20:13:58.971Z,12.00
2017-08-28T20:16:26.661Z,10.87
2017-08-28T20:18:54.123Z,10.77
2017-08-28T20:21:22.169Z,11.53
2017-08-28T20:23:49.613Z,10.80
2017-08-28T20:26:17.049Z,10.30
2017-08-28T20:28:44.519Z,12.20
2017-08-28T20:31:11.952Z,11.60
2017-08-28T20:33:39.395Z,11.03
2017-08-28T20:36:07.048Z,14.07
2017-08-28T20:38:34.487Z,12.80
2017-08-28T20:41:01.933Z,12.63
2017-08-28T20:43:29.505Z,13.30
2017-08-28T20:45:56.957Z,13.00
2017-08-28T20:48:24.466Z,13.10
2017-08-28T20:50:51.920Z,12.87
2017-08-28T20:53:19.389Z,12.77
2017-08-28T20:55:46.830Z,11.70
2017-08-28T20:58:14.556Z,12.90
2017-08-28T21:00:41.997Z,14.50
2017-08-28T21:03:09.437Z,12.20
2017-08-28T21:05:36.940Z,12.40
2017-08-28T21:08:04.382Z,12.37
2017-08-28T21:10:31.812Z,11.27
2017-08-28T21:12:59.276Z,12.80
2017-08-28T21:15:26.707Z,12.23
2017-08-28T21:17:55.001Z,13.00
2017-08-28T21:20:22.627Z,12.33
2017-08-28T21:22:50.070Z,13.00
2017-08-28T21:25:17.500Z,12.77
2017-08-28T21:27:44.969Z,13.77
2017-08-28T21:30:12.378Z,13.70
2017-08-28T21:32:39.820Z,12.00
2017-08-28T21:35:07.271Z,13.07
2017-08-28T21:37:34.704Z,14.70
2017-08-28T21:40:02.206Z,14.17
2017-08-28T21:42:29.622Z,13.40
2017-08-28T21:44:57.044Z,13.10
2017-08-28T21:47:24.679Z,12.57
2017-08-28T21:49:52.270Z,14.20
2017-08-28T21:52:19.812Z,13.77
2017-08-28T21:57:21.721Z,13.33
2017-08-28T21:59:49.331Z,13.93
2017-08-28T22:02:16.770Z,13.80
2017-08-28T22:04:44.213Z,13.93
2017-08-28T22:07:11.694Z,14.40
2017-08-28T22:09:39.147Z,14.40
2017-08-28T22:12:06.593Z,13.90
2017-08-28T22:14:34.247Z,14.43
2017-08-28T22:17:01.699Z,13.10
2017-08-28T22:19:29.139Z,15.57
2017-08-28T22:21:56.605Z,14.60
2017-08-28T22:24:24.031Z,16.57
2017-08-28T22:26:51.473Z,15.67
2017-08-28T22:29:18.936Z,14.10
2017-08-28T22:31:46.371Z,14.57
2017-08-28T22:34:13.826Z,15.40
2017-08-28T22:36:42.700Z,15.37
2017-08-28T22:39:10.118Z,14.63
2017-08-28T22:41:37.549Z,15.90
2017-08-28T22:44:05.012Z,14.03
2017-08-28T22:46:32.450Z,15.60
2017-08-28T22:48:59.885Z,15.00
2017-08-28T22:51:27.359Z,14.03
2017-08-28T22:53:54.781Z,15.30
2017-08-28T22:56:22.213Z,15.37
2017-08-28T22:58:49.669Z,13.97
2017-08-28T23:01:17.151Z,14.10
2017-08-28T23:03:45.358Z,13.97
2017-08-28T23:06:12.792Z,13.80
2017-08-28T23:08:40.255Z,13.90
2017-08-28T23:11:07.691Z,16.07
2017-08-28T23:13:35.141Z,13.90
2017-08-28T23:16:02.857Z,14.67
2017-08-28T23:18:30.271Z,13.67
2017-08-28T23:20:57.693Z,14.47
2017-08-28T23:23:25.323Z,12.03
2017-08-28T23:25:52.756Z,14.10
2017-08-28T23:28:20.178Z,12.60
2017-08-28T23:33:21.460Z,13.57
2017-08-28T23:35:49.065Z,14.17
2017-08-28T23:38:16.462Z,13.10
2017-08-28T23:40:43.931Z,14.23
2017-08-28T23:43:11.375Z,13.67
2017-08-28T23:45:38.799Z,14.43
2017-08-28T23:48:06.244Z,13.90
2017-08-28T23:50:33.694Z,15.10
2017-08-28T23:53:01.114Z,13.50
2017-08-28T23:55:28.543Z,15.63
2017-08-28T23:57:56.996Z,13.00
